sensor_id;sensor_type;location;lat;lon;timestamp;temperature;humidity
32173;DHT22;18679;45.190;5.722;2023-10-09T00:02:42;20.80;53.70
32173;DHT22;18679;45.190;5.722;2023-10-09T00:05:44;20.80;54.10
32173;DHT22;18679;45.190;5.722;2023-10-09T00:08:45;20.70;54.40
32173;DHT22;18679;45.190;5.722;2023-10-09T00:11:49;20.70;54.70
32173;DHT22;18679;45.190;5.722;2023-10-09T00:14:57;20.60;54.90
32173;DHT22;18679;45.190;5.722;2023-10-09T00:18:07;20.60;55.10
32173;DHT22;18679;45.190;5.722;2023-10-09T00:21:16;20.60;55.40
32173;DHT22;18679;45.190;5.722;2023-10-09T00:24:20;20.50;55.50
32173;DHT22;18679;45.190;5.722;2023-10-09T00:27:24;20.50;55.70
32173;DHT22;18679;45.190;5.722;2023-10-09T00:30:32;20.40;55.70
32173;DHT22;18679;45.190;5.722;2023-10-09T00:33:36;20.40;55.70
32173;DHT22;18679;45.190;5.722;2023-10-09T00:36:37;20.40;55.70
32173;DHT22;18679;45.190;5.722;2023-10-09T00:39:51;20.40;55.70
32173;DHT22;18679;45.190;5.722;2023-10-09T00:42:59;20.40;55.70
32173;DHT22;18679;45.190;5.722;2023-10-09T00:46:05;20.40;55.90
32173;DHT22;18679;45.190;5.722;2023-10-09T00:49:21;20.30;56.20
32173;DHT22;18679;45.190;5.722;2023-10-09T00:52:22;20.30;56.40
32173;DHT22;18679;45.190;5.722;2023-10-09T00:55:37;20.20;56.50
32173;DHT22;18679;45.190;5.722;2023-10-09T00:58:39;20.20;56.40
32173;DHT22;18679;45.190;5.722;2023-10-09T01:01:42;20.20;57.10
32173;DHT22;18679;45.190;5.722;2023-10-09T01:05:05;20.20;56.50
32173;DHT22;18679;45.190;5.722;2023-10-09T01:08:19;20.20;56.60
32173;DHT22;18679;45.190;5.722;2023-10-09T01:11:29;20.20;56.70
32173;DHT22;18679;45.190;5.722;2023-10-09T01:14:31;20.10;56.80
32173;DHT22;18679;45.190;5.722;2023-10-09T01:17:37;20.10;56.90
32173;DHT22;18679;45.190;5.722;2023-10-09T01:20:39;20.10;57.00
32173;DHT22;18679;45.190;5.722;2023-10-09T01:23:46;20.00;57.10
32173;DHT22;18679;45.190;5.722;2023-10-09T01:27:06;20.00;57.10
32173;DHT22;18679;45.190;5.722;2023-10-09T01:30:16;19.90;57.30
32173;DHT22;18679;45.190;5.722;2023-10-09T01:33:17;19.90;57.50
32173;DHT22;18679;45.190;5.722;2023-10-09T01:36:25;19.80;57.60
32173;DHT22;18679;45.190;5.722;2023-10-09T01:39:32;19.70;57.90
32173;DHT22;18679;45.190;5.722;2023-10-09T01:42:41;19.70;57.90
32173;DHT22;18679;45.190;5.722;2023-10-09T01:45:48;19.60;58.00
32173;DHT22;18679;45.190;5.722;2023-10-09T01:48:48;19.50;58.30
32173;DHT22;18679;45.190;5.722;2023-10-09T01:51:49;19.50;58.40
32173;DHT22;18679;45.190;5.722;2023-10-09T01:54:51;19.40;58.40
32173;DHT22;18679;45.190;5.722;2023-10-09T01:57:54;19.40;58.30
32173;DHT22;18679;45.190;5.722;2023-10-09T02:00:55;19.40;58.20
32173;DHT22;18679;45.190;5.722;2023-10-09T02:03:56;19.50;58.20
32173;DHT22;18679;45.190;5.722;2023-10-09T02:07:04;19.40;58.00
32173;DHT22;18679;45.190;5.722;2023-10-09T02:10:12;19.50;58.00
32173;DHT22;18679;45.190;5.722;2023-10-09T02:13:26;19.40;58.00
32173;DHT22;18679;45.190;5.722;2023-10-09T02:16:35;19.40;58.10
32173;DHT22;18679;45.190;5.722;2023-10-09T02:19:42;19.40;58.20
32173;DHT22;18679;45.190;5.722;2023-10-09T02:22:48;19.30;58.20
32173;DHT22;18679;45.190;5.722;2023-10-09T02:25:49;19.30;58.30
32173;DHT22;18679;45.190;5.722;2023-10-09T02:28:55;19.30;58.40
32173;DHT22;18679;45.190;5.722;2023-10-09T02:32:15;19.20;58.50
32173;DHT22;18679;45.190;5.722;2023-10-09T02:35:26;19.20;58.50
32173;DHT22;18679;45.190;5.722;2023-10-09T02:38:39;19.20;58.50
32173;DHT22;18679;45.190;5.722;2023-10-09T02:41:41;19.20;58.60
32173;DHT22;18679;45.190;5.722;2023-10-09T02:44:50;19.20;58.70
32173;DHT22;18679;45.190;5.722;2023-10-09T02:47:52;19.20;58.50
32173;DHT22;18679;45.190;5.722;2023-10-09T02:50:56;19.10;59.00
32173;DHT22;18679;45.190;5.722;2023-10-09T02:54:02;19.10;59.10
32173;DHT22;18679;45.190;5.722;2023-10-09T02:57:19;19.10;59.30
32173;DHT22;18679;45.190;5.722;2023-10-09T03:00:24;19.10;59.40
32173;DHT22;18679;45.190;5.722;2023-10-09T03:03:30;19.10;59.40
32173;DHT22;18679;45.190;5.722;2023-10-09T03:06:32;19.10;59.40
32173;DHT22;18679;45.190;5.722;2023-10-09T03:09:35;19.10;59.40
32173;DHT22;18679;45.190;5.722;2023-10-09T03:12:36;19.10;59.50
32173;DHT22;18679;45.190;5.722;2023-10-09T03:15:38;19.00;59.50
32173;DHT22;18679;45.190;5.722;2023-10-09T03:18:40;19.00;59.60
32173;DHT22;18679;45.190;5.722;2023-10-09T03:21:41;19.00;59.70
32173;DHT22;18679;45.190;5.722;2023-10-09T03:24:41;19.00;59.70
32173;DHT22;18679;45.190;5.722;2023-10-09T03:27:45;18.90;59.60
32173;DHT22;18679;45.190;5.722;2023-10-09T03:30:46;18.90;59.60
32173;DHT22;18679;45.190;5.722;2023-10-09T03:33:48;18.90;59.60
32173;DHT22;18679;45.190;5.722;2023-10-09T03:36:49;18.90;59.50
32173;DHT22;18679;45.190;5.722;2023-10-09T03:40:00;19.00;59.60
32173;DHT22;18679;45.190;5.722;2023-10-09T03:43:01;18.90;59.60
32173;DHT22;18679;45.190;5.722;2023-10-09T03:46:02;18.90;59.60
32173;DHT22;18679;45.190;5.722;2023-10-09T03:49:05;18.90;59.60
32173;DHT22;18679;45.190;5.722;2023-10-09T03:52:11;18.90;59.70
32173;DHT22;18679;45.190;5.722;2023-10-09T03:55:12;18.90;59.80
32173;DHT22;18679;45.190;5.722;2023-10-09T03:58:13;18.80;59.80
32173;DHT22;18679;45.190;5.722;2023-10-09T04:01:17;18.80;59.80
32173;DHT22;18679;45.190;5.722;2023-10-09T04:04:28;18.80;59.90
32173;DHT22;18679;45.190;5.722;2023-10-09T04:07:29;18.80;60.00
32173;DHT22;18679;45.190;5.722;2023-10-09T04:10:34;18.80;60.00
32173;DHT22;18679;45.190;5.722;2023-10-09T04:13:45;18.80;60.00
32173;DHT22;18679;45.190;5.722;2023-10-09T04:16:50;18.80;59.90
32173;DHT22;18679;45.190;5.722;2023-10-09T04:20:06;18.80;59.90
32173;DHT22;18679;45.190;5.722;2023-10-09T04:23:19;18.80;59.90
32173;DHT22;18679;45.190;5.722;2023-10-09T04:26:36;18.80;59.90
32173;DHT22;18679;45.190;5.722;2023-10-09T04:29:37;18.80;59.80
32173;DHT22;18679;45.190;5.722;2023-10-09T04:32:39;18.70;59.70
32173;DHT22;18679;45.190;5.722;2023-10-09T04:35:40;18.80;59.30
32173;DHT22;18679;45.190;5.722;2023-10-09T04:38:51;18.80;58.70
32173;DHT22;18679;45.190;5.722;2023-10-09T04:42:04;18.80;58.40
32173;DHT22;18679;45.190;5.722;2023-10-09T04:45:37;18.70;58.00
32173;DHT22;18679;45.190;5.722;2023-10-09T04:48:56;18.70;57.60
32173;DHT22;18679;45.190;5.722;2023-10-09T04:52:17;18.70;57.60
32173;DHT22;18679;45.190;5.722;2023-10-09T04:55:30;18.70;57.60
32173;DHT22;18679;45.190;5.722;2023-10-09T04:58:39;18.70;57.70
32173;DHT22;18679;45.190;5.722;2023-10-09T05:01:40;18.60;57.80
32173;DHT22;18679;45.190;5.722;2023-10-09T05:04:58;19.10;58.20
32173;DHT22;18679;45.190;5.722;2023-10-09T05:08:37;18.60;58.20
32173;DHT22;18679;45.190;5.722;2023-10-09T05:11:46;18.60;58.50
32173;DHT22;18679;45.190;5.722;2023-10-09T05:14:53;18.60;58.70
32173;DHT22;18679;45.190;5.722;2023-10-09T05:18:10;18.60;58.80
32173;DHT22;18679;45.190;5.722;2023-10-09T05:21:17;18.60;58.80
32173;DHT22;18679;45.190;5.722;2023-10-09T05:24:44;18.60;59.00
32173;DHT22;18679;45.190;5.722;2023-10-09T05:27:47;18.60;59.10
32173;DHT22;18679;45.190;5.722;2023-10-09T05:31:12;18.60;59.80
32173;DHT22;18679;45.190;5.722;2023-10-09T05:34:34;18.60;59.10
32173;DHT22;18679;45.190;5.722;2023-10-09T05:37:35;18.60;59.10
32173;DHT22;18679;45.190;5.722;2023-10-09T05:40:44;18.60;58.90
32173;DHT22;18679;45.190;5.722;2023-10-09T05:43:57;18.60;59.10
32173;DHT22;18679;45.190;5.722;2023-10-09T05:47:16;18.70;59.20
32173;DHT22;18679;45.190;5.722;2023-10-09T05:50:32;18.60;59.30
32173;DHT22;18679;45.190;5.722;2023-10-09T05:53:56;18.60;59.50
32173;DHT22;18679;45.190;5.722;2023-10-09T05:57:24;18.60;59.50
32173;DHT22;18679;45.190;5.722;2023-10-09T06:00:43;18.60;59.60
32173;DHT22;18679;45.190;5.722;2023-10-09T06:04:02;18.60;59.80
32173;DHT22;18679;45.190;5.722;2023-10-09T06:07:21;18.50;60.00
32173;DHT22;18679;45.190;5.722;2023-10-09T06:10:41;18.40;59.70
32173;DHT22;18679;45.190;5.722;2023-10-09T06:13:42;18.40;60.30
32173;DHT22;18679;45.190;5.722;2023-10-09T06:17:03;18.40;60.30
32173;DHT22;18679;45.190;5.722;2023-10-09T06:20:22;18.40;60.40
32173;DHT22;18679;45.190;5.722;2023-10-09T06:24:01;18.30;60.30
32173;DHT22;18679;45.190;5.722;2023-10-09T06:27:18;18.30;60.40
32173;DHT22;18679;45.190;5.722;2023-10-09T06:30:26;18.30;60.50
32173;DHT22;18679;45.190;5.722;2023-10-09T06:33:28;18.30;60.60
32173;DHT22;18679;45.190;5.722;2023-10-09T06:36:51;18.30;60.60
32173;DHT22;18679;45.190;5.722;2023-10-09T06:39:56;18.30;60.70
32173;DHT22;18679;45.190;5.722;2023-10-09T06:42:57;18.20;60.80
32173;DHT22;18679;45.190;5.722;2023-10-09T06:45:58;18.20;60.90
32173;DHT22;18679;45.190;5.722;2023-10-09T06:49:19;18.20;61.10
32173;DHT22;18679;45.190;5.722;2023-10-09T06:52:29;18.20;61.20
32173;DHT22;18679;45.190;5.722;2023-10-09T06:55:50;18.20;61.20
32173;DHT22;18679;45.190;5.722;2023-10-09T06:58:52;18.30;61.30
32173;DHT22;18679;45.190;5.722;2023-10-09T07:01:55;18.20;61.20
32173;DHT22;18679;45.190;5.722;2023-10-09T07:05:15;18.40;61.30
32173;DHT22;18679;45.190;5.722;2023-10-09T07:08:18;18.40;61.10
32173;DHT22;18679;45.190;5.722;2023-10-09T07:11:43;18.40;60.80
32173;DHT22;18679;45.190;5.722;2023-10-09T07:14:44;18.40;60.70
32173;DHT22;18679;45.190;5.722;2023-10-09T07:17:45;18.50;60.60
32173;DHT22;18679;45.190;5.722;2023-10-09T07:20:46;18.60;60.40
32173;DHT22;18679;45.190;5.722;2023-10-09T07:23:59;17.00;58.80
32173;DHT22;18679;45.190;5.722;2023-10-09T07:27:16;18.60;60.00
32173;DHT22;18679;45.190;5.722;2023-10-09T07:30:20;18.70;59.90
32173;DHT22;18679;45.190;5.722;2023-10-09T07:33:30;18.40;59.60
32173;DHT22;18679;45.190;5.722;2023-10-09T07:36:49;18.90;59.80
32173;DHT22;18679;45.190;5.722;2023-10-09T07:39:57;19.00;59.70
32173;DHT22;18679;45.190;5.722;2023-10-09T07:42:58;19.00;59.40
32173;DHT22;18679;45.190;5.722;2023-10-09T07:46:10;19.10;59.30
32173;DHT22;18679;45.190;5.722;2023-10-09T07:49:30;19.30;59.00
32173;DHT22;18679;45.190;5.722;2023-10-09T07:52:31;19.40;58.70
32173;DHT22;18679;45.190;5.722;2023-10-09T07:55:32;19.50;58.50
32173;DHT22;18679;45.190;5.722;2023-10-09T07:58:40;19.60;58.20
32173;DHT22;18679;45.190;5.722;2023-10-09T08:01:50;20.10;58.20
32173;DHT22;18679;45.190;5.722;2023-10-09T08:05:03;19.80;57.80
32173;DHT22;18679;45.190;5.722;2023-10-09T08:08:07;19.90;57.60
32173;DHT22;18679;45.190;5.722;2023-10-09T08:11:36;20.00;57.30
32173;DHT22;18679;45.190;5.722;2023-10-09T08:14:46;20.10;57.00
32173;DHT22;18679;45.190;5.722;2023-10-09T08:17:50;20.30;56.80
32173;DHT22;18679;45.190;5.722;2023-10-09T08:20:54;20.40;56.40
32173;DHT22;18679;45.190;5.722;2023-10-09T08:23:58;20.50;56.20
32173;DHT22;18679;45.190;5.722;2023-10-09T08:27:05;20.60;56.00
32173;DHT22;18679;45.190;5.722;2023-10-09T08:30:28;20.70;55.60
32173;DHT22;18679;45.190;5.722;2023-10-09T08:33:30;20.70;55.40
32173;DHT22;18679;45.190;5.722;2023-10-09T08:36:40;21.00;55.10
32173;DHT22;18679;45.190;5.722;2023-10-09T08:39:43;21.10;54.90
32173;DHT22;18679;45.190;5.722;2023-10-09T08:42:53;21.30;54.60
32173;DHT22;18679;45.190;5.722;2023-10-09T08:45:57;21.30;54.20
32173;DHT22;18679;45.190;5.722;2023-10-09T08:49:03;21.40;53.80
32173;DHT22;18679;45.190;5.722;2023-10-09T08:52:06;21.70;53.20
32173;DHT22;18679;45.190;5.722;2023-10-09T08:55:07;21.80;52.70
32173;DHT22;18679;45.190;5.722;2023-10-09T08:58:09;21.90;52.50
32173;DHT22;18679;45.190;5.722;2023-10-09T09:01:21;22.00;52.40
32173;DHT22;18679;45.190;5.722;2023-10-09T09:04:40;22.20;52.10
32173;DHT22;18679;45.190;5.722;2023-10-09T09:07:41;22.30;52.00
32173;DHT22;18679;45.190;5.722;2023-10-09T09:10:43;22.50;51.70
32173;DHT22;18679;45.190;5.722;2023-10-09T09:14:04;22.60;51.10
32173;DHT22;18679;45.190;5.722;2023-10-09T09:17:08;22.70;51.00
32173;DHT22;18679;45.190;5.722;2023-10-09T09:20:22;22.80;50.90
32173;DHT22;18679;45.190;5.722;2023-10-09T09:23:24;23.00;50.40
32173;DHT22;18679;45.190;5.722;2023-10-09T09:26:39;23.10;49.90
32173;DHT22;18679;45.190;5.722;2023-10-09T09:29:46;23.20;49.70
32173;DHT22;18679;45.190;5.722;2023-10-09T09:32:53;23.30;49.50
32173;DHT22;18679;45.190;5.722;2023-10-09T09:36:12;23.40;49.20
32173;DHT22;18679;45.190;5.722;2023-10-09T09:39:13;23.50;49.00
32173;DHT22;18679;45.190;5.722;2023-10-09T09:42:19;23.60;48.70
32173;DHT22;18679;45.190;5.722;2023-10-09T09:45:26;23.80;48.70
32173;DHT22;18679;45.190;5.722;2023-10-09T09:48:27;23.90;48.00
32173;DHT22;18679;45.190;5.722;2023-10-09T09:51:32;24.00;47.30
32173;DHT22;18679;45.190;5.722;2023-10-09T09:54:33;24.10;47.20
32173;DHT22;18679;45.190;5.722;2023-10-09T09:57:36;24.20;47.00
32173;DHT22;18679;45.190;5.722;2023-10-09T10:00:40;24.40;46.60
32173;DHT22;18679;45.190;5.722;2023-10-09T10:03:45;24.50;46.20
32173;DHT22;18679;45.190;5.722;2023-10-09T10:06:48;24.60;45.50
32173;DHT22;18679;45.190;5.722;2023-10-09T10:09:50;24.70;45.00
32173;DHT22;18679;45.190;5.722;2023-10-09T10:12:55;24.80;44.80
32173;DHT22;18679;45.190;5.722;2023-10-09T10:16:06;24.90;44.70
32173;DHT22;18679;45.190;5.722;2023-10-09T10:19:12;25.10;44.80
32173;DHT22;18679;45.190;5.722;2023-10-09T10:22:26;25.40;44.30
32173;DHT22;18679;45.190;5.722;2023-10-09T10:25:37;25.90;43.80
32173;DHT22;18679;45.190;5.722;2023-10-09T10:29:18;26.10;42.90
32173;DHT22;18679;45.190;5.722;2023-10-09T10:35:54;26.50;40.90
32173;DHT22;18679;45.190;5.722;2023-10-09T10:39:03;26.70;40.40
32173;DHT22;18679;45.190;5.722;2023-10-09T10:42:14;26.80;39.80
32173;DHT22;18679;45.190;5.722;2023-10-09T10:45:38;27.00;39.70
32173;DHT22;18679;45.190;5.722;2023-10-09T10:48:44;27.30;39.50
32173;DHT22;18679;45.190;5.722;2023-10-09T10:51:49;27.60;39.30
32173;DHT22;18679;45.190;5.722;2023-10-09T10:54:50;27.90;38.60
32173;DHT22;18679;45.190;5.722;2023-10-09T10:58:18;28.20;38.00
32173;DHT22;18679;45.190;5.722;2023-10-09T11:01:48;28.50;37.20
32173;DHT22;18679;45.190;5.722;2023-10-09T11:04:59;28.90;36.20
32173;DHT22;18679;45.190;5.722;2023-10-09T11:08:24;29.10;35.50
32173;DHT22;18679;45.190;5.722;2023-10-09T11:11:31;29.50;34.50
32173;DHT22;18679;45.190;5.722;2023-10-09T11:14:33;29.80;34.10
32173;DHT22;18679;45.190;5.722;2023-10-09T11:17:45;30.20;33.80
32173;DHT22;18679;45.190;5.722;2023-10-09T11:20:51;30.60;33.10
32173;DHT22;18679;45.190;5.722;2023-10-09T11:24:04;30.90;33.10
32173;DHT22;18679;45.190;5.722;2023-10-09T11:27:24;31.40;32.60
32173;DHT22;18679;45.190;5.722;2023-10-09T11:30:32;31.70;32.10
32173;DHT22;18679;45.190;5.722;2023-10-09T11:36:45;32.70;31.30
32173;DHT22;18679;45.190;5.722;2023-10-09T11:39:53;33.20;30.80
32173;DHT22;18679;45.190;5.722;2023-10-09T11:42:54;33.50;29.80
32173;DHT22;18679;45.190;5.722;2023-10-09T11:46:09;33.80;29.80
32173;DHT22;18679;45.190;5.722;2023-10-09T11:49:14;34.20;29.60
32173;DHT22;18679;45.190;5.722;2023-10-09T11:52:21;34.70;29.20
32173;DHT22;18679;45.190;5.722;2023-10-09T11:55:38;35.20;28.70
32173;DHT22;18679;45.190;5.722;2023-10-09T11:58:39;35.70;28.20
32173;DHT22;18679;45.190;5.722;2023-10-09T12:01:46;36.20;27.80
32173;DHT22;18679;45.190;5.722;2023-10-09T12:04:53;36.60;27.30
32173;DHT22;18679;45.190;5.722;2023-10-09T12:07:57;37.10;26.70
32173;DHT22;18679;45.190;5.722;2023-10-09T12:11:01;37.40;26.30
32173;DHT22;18679;45.190;5.722;2023-10-09T12:14:08;37.60;26.20
32173;DHT22;18679;45.190;5.722;2023-10-09T12:17:10;37.90;26.00
32173;DHT22;18679;45.190;5.722;2023-10-09T12:20:11;38.20;25.70
32173;DHT22;18679;45.190;5.722;2023-10-09T12:23:31;38.50;25.50
32173;DHT22;18679;45.190;5.722;2023-10-09T12:26:38;38.80;25.60
32173;DHT22;18679;45.190;5.722;2023-10-09T12:29:41;39.10;24.80
32173;DHT22;18679;45.190;5.722;2023-10-09T12:32:45;39.20;24.50
32173;DHT22;18679;45.190;5.722;2023-10-09T12:35:46;38.70;24.70
32173;DHT22;18679;45.190;5.722;2023-10-09T12:38:48;37.80;25.10
32173;DHT22;18679;45.190;5.722;2023-10-09T12:42:00;37.10;25.50
32173;DHT22;18679;45.190;5.722;2023-10-09T12:45:07;36.70;25.70
32173;DHT22;18679;45.190;5.722;2023-10-09T12:48:11;36.50;25.70
32173;DHT22;18679;45.190;5.722;2023-10-09T12:51:14;36.30;25.60
32173;DHT22;18679;45.190;5.722;2023-10-09T12:54:17;35.80;26.10
32173;DHT22;18679;45.190;5.722;2023-10-09T12:57:24;34.90;26.70
32173;DHT22;18679;45.190;5.722;2023-10-09T13:00:27;34.20;27.40
32173;DHT22;18679;45.190;5.722;2023-10-09T13:03:28;33.70;28.00
32173;DHT22;18679;45.190;5.722;2023-10-09T13:06:33;33.20;28.50
32173;DHT22;18679;45.190;5.722;2023-10-09T13:09:36;32.80;29.00
32173;DHT22;18679;45.190;5.722;2023-10-09T13:12:43;32.50;29.30
32173;DHT22;18679;45.190;5.722;2023-10-09T13:15:43;32.20;29.60
32173;DHT22;18679;45.190;5.722;2023-10-09T13:18:44;31.90;29.80
32173;DHT22;18679;45.190;5.722;2023-10-09T13:21:50;31.70;30.00
32173;DHT22;18679;45.190;5.722;2023-10-09T13:24:51;31.40;30.40
32173;DHT22;18679;45.190;5.722;2023-10-09T13:27:53;31.20;30.70
32173;DHT22;18679;45.190;5.722;2023-10-09T13:30:54;31.00;31.00
32173;DHT22;18679;45.190;5.722;2023-10-09T13:33:55;30.90;31.30
32173;DHT22;18679;45.190;5.722;2023-10-09T13:36:56;30.70;31.60
32173;DHT22;18679;45.190;5.722;2023-10-09T13:40:00;30.60;31.70
32173;DHT22;18679;45.190;5.722;2023-10-09T13:43:09;30.50;31.90
32173;DHT22;18679;45.190;5.722;2023-10-09T13:46:17;30.40;32.00
32173;DHT22;18679;45.190;5.722;2023-10-09T13:49:18;30.40;32.10
32173;DHT22;18679;45.190;5.722;2023-10-09T13:52:23;30.30;32.20
32173;DHT22;18679;45.190;5.722;2023-10-09T13:55:24;30.30;32.30
32173;DHT22;18679;45.190;5.722;2023-10-09T13:58:32;30.20;32.40
32173;DHT22;18679;45.190;5.722;2023-10-09T14:01:35;30.20;32.60
32173;DHT22;18679;45.190;5.722;2023-10-09T14:04:36;30.20;32.70
32173;DHT22;18679;45.190;5.722;2023-10-09T14:07:37;30.10;32.70
32173;DHT22;18679;45.190;5.722;2023-10-09T14:10:38;30.10;32.90
32173;DHT22;18679;45.190;5.722;2023-10-09T14:13:40;30.00;32.90
32173;DHT22;18679;45.190;5.722;2023-10-09T14:16:41;30.00;33.00
32173;DHT22;18679;45.190;5.722;2023-10-09T14:19:44;29.90;33.10
32173;DHT22;18679;45.190;5.722;2023-10-09T14:22:48;29.90;33.20
32173;DHT22;18679;45.190;5.722;2023-10-09T14:25:53;29.90;33.30
32173;DHT22;18679;45.190;5.722;2023-10-09T14:28:56;29.90;33.30
32173;DHT22;18679;45.190;5.722;2023-10-09T14:31:58;29.90;33.40
32173;DHT22;18679;45.190;5.722;2023-10-09T14:35:03;29.80;33.40
32173;DHT22;18679;45.190;5.722;2023-10-09T14:38:13;29.80;33.50
32173;DHT22;18679;45.190;5.722;2023-10-09T14:41:14;29.80;33.60
32173;DHT22;18679;45.190;5.722;2023-10-09T14:44:15;29.70;33.60
32173;DHT22;18679;45.190;5.722;2023-10-09T14:47:17;29.70;33.70
32173;DHT22;18679;45.190;5.722;2023-10-09T14:50:21;29.70;33.80
32173;DHT22;18679;45.190;5.722;2023-10-09T14:53:23;29.60;33.80
32173;DHT22;18679;45.190;5.722;2023-10-09T14:56:30;29.60;33.90
32173;DHT22;18679;45.190;5.722;2023-10-09T14:59:31;29.60;34.00
32173;DHT22;18679;45.190;5.722;2023-10-09T15:02:32;29.60;34.10
32173;DHT22;18679;45.190;5.722;2023-10-09T15:05:34;29.50;34.10
32173;DHT22;18679;45.190;5.722;2023-10-09T15:08:35;29.50;34.20
32173;DHT22;18679;45.190;5.722;2023-10-09T15:11:36;29.50;34.20
32173;DHT22;18679;45.190;5.722;2023-10-09T15:14:40;29.50;34.40
32173;DHT22;18679;45.190;5.722;2023-10-09T15:17:44;29.50;34.40
32173;DHT22;18679;45.190;5.722;2023-10-09T15:20:49;29.40;34.50
32173;DHT22;18679;45.190;5.722;2023-10-09T15:23:50;29.40;34.50
32173;DHT22;18679;45.190;5.722;2023-10-09T15:26:51;29.40;34.60
32173;DHT22;18679;45.190;5.722;2023-10-09T15:29:52;29.30;34.60
32173;DHT22;18679;45.190;5.722;2023-10-09T15:32:54;29.40;34.80
32173;DHT22;18679;45.190;5.722;2023-10-09T15:35:57;29.40;34.80
32173;DHT22;18679;45.190;5.722;2023-10-09T15:38:59;29.30;34.90
32173;DHT22;18679;45.190;5.722;2023-10-09T15:42:00;29.30;35.00
32173;DHT22;18679;45.190;5.722;2023-10-09T15:45:05;29.20;35.10
32173;DHT22;18679;45.190;5.722;2023-10-09T15:48:07;29.20;35.30
32173;DHT22;18679;45.190;5.722;2023-10-09T15:51:12;29.20;35.40
32173;DHT22;18679;45.190;5.722;2023-10-09T15:54:15;29.10;35.40
32173;DHT22;18679;45.190;5.722;2023-10-09T15:57:20;29.10;35.50
32173;DHT22;18679;45.190;5.722;2023-10-09T16:00:22;29.00;35.50
32173;DHT22;18679;45.190;5.722;2023-10-09T16:03:28;29.00;35.50
32173;DHT22;18679;45.190;5.722;2023-10-09T16:06:29;29.00;35.60
32173;DHT22;18679;45.190;5.722;2023-10-09T16:09:32;29.00;35.70
32173;DHT22;18679;45.190;5.722;2023-10-09T16:12:39;28.90;35.70
32173;DHT22;18679;45.190;5.722;2023-10-09T16:15:43;28.90;35.90
32173;DHT22;18679;45.190;5.722;2023-10-09T16:18:44;28.80;36.00
32173;DHT22;18679;45.190;5.722;2023-10-09T16:21:44;28.70;36.30
32173;DHT22;18679;45.190;5.722;2023-10-09T16:24:47;28.60;36.40
32173;DHT22;18679;45.190;5.722;2023-10-09T16:27:48;28.50;36.60
32173;DHT22;18679;45.190;5.722;2023-10-09T16:30:50;28.50;36.90
32173;DHT22;18679;45.190;5.722;2023-10-09T16:33:51;28.30;37.10
32173;DHT22;18679;45.190;5.722;2023-10-09T16:36:52;28.20;37.40
32173;DHT22;18679;45.190;5.722;2023-10-09T16:39:53;28.10;37.80
32173;DHT22;18679;45.190;5.722;2023-10-09T16:42:59;28.00;38.30
32173;DHT22;18679;45.190;5.722;2023-10-09T16:46:01;27.80;38.60
32173;DHT22;18679;45.190;5.722;2023-10-09T16:49:10;27.70;39.00
32173;DHT22;18679;45.190;5.722;2023-10-09T16:52:12;27.60;39.30
32173;DHT22;18679;45.190;5.722;2023-10-09T16:55:13;27.40;39.60
32173;DHT22;18679;45.190;5.722;2023-10-09T16:58:15;27.40;39.80
32173;DHT22;18679;45.190;5.722;2023-10-09T17:01:17;27.20;39.90
32173;DHT22;18679;45.190;5.722;2023-10-09T17:04:21;27.20;40.10
32173;DHT22;18679;45.190;5.722;2023-10-09T17:07:23;27.10;40.20
32173;DHT22;18679;45.190;5.722;2023-10-09T17:10:33;27.00;40.20
32173;DHT22;18679;45.190;5.722;2023-10-09T17:13:35;26.90;40.30
32173;DHT22;18679;45.190;5.722;2023-10-09T17:16:38;26.90;40.40
32173;DHT22;18679;45.190;5.722;2023-10-09T17:19:42;26.80;40.60
32173;DHT22;18679;45.190;5.722;2023-10-09T17:22:45;26.70;40.60
32173;DHT22;18679;45.190;5.722;2023-10-09T17:25:48;26.60;40.80
32173;DHT22;18679;45.190;5.722;2023-10-09T17:28:57;26.50;41.30
32173;DHT22;18679;45.190;5.722;2023-10-09T17:32:00;26.40;42.30
32173;DHT22;18679;45.190;5.722;2023-10-09T17:35:02;26.40;41.70
32173;DHT22;18679;45.190;5.722;2023-10-09T17:38:03;26.20;42.10
32173;DHT22;18679;45.190;5.722;2023-10-09T17:41:07;26.20;42.60
32173;DHT22;18679;45.190;5.722;2023-10-09T17:44:09;26.20;42.70
32173;DHT22;18679;45.190;5.722;2023-10-09T17:47:10;26.10;42.80
32173;DHT22;18679;45.190;5.722;2023-10-09T17:50:11;26.00;42.80
32173;DHT22;18679;45.190;5.722;2023-10-09T17:53:12;25.90;43.10
32173;DHT22;18679;45.190;5.722;2023-10-09T17:56:13;25.80;43.20
32173;DHT22;18679;45.190;5.722;2023-10-09T17:59:14;25.70;43.30
32173;DHT22;18679;45.190;5.722;2023-10-09T18:02:15;25.60;43.40
32173;DHT22;18679;45.190;5.722;2023-10-09T18:05:16;25.60;43.40
32173;DHT22;18679;45.190;5.722;2023-10-09T18:08:20;25.50;43.50
32173;DHT22;18679;45.190;5.722;2023-10-09T18:11:22;25.40;43.60
32173;DHT22;18679;45.190;5.722;2023-10-09T18:14:24;25.40;43.70
32173;DHT22;18679;45.190;5.722;2023-10-09T18:17:25;25.30;43.80
32173;DHT22;18679;45.190;5.722;2023-10-09T18:20:29;25.30;44.00
32173;DHT22;18679;45.190;5.722;2023-10-09T18:23:30;25.20;44.10
32173;DHT22;18679;45.190;5.722;2023-10-09T18:26:31;25.10;44.20
32173;DHT22;18679;45.190;5.722;2023-10-09T18:29:35;25.10;44.20
32173;DHT22;18679;45.190;5.722;2023-10-09T18:32:36;25.00;44.30
32173;DHT22;18679;45.190;5.722;2023-10-09T18:35:37;25.00;44.60
32173;DHT22;18679;45.190;5.722;2023-10-09T18:38:39;25.00;44.50
32173;DHT22;18679;45.190;5.722;2023-10-09T18:41:42;24.90;44.50
32173;DHT22;18679;45.190;5.722;2023-10-09T18:44:45;24.90;44.40
32173;DHT22;18679;45.190;5.722;2023-10-09T18:47:46;24.90;44.30
32173;DHT22;18679;45.190;5.722;2023-10-09T18:50:47;24.80;44.50
32173;DHT22;18679;45.190;5.722;2023-10-09T18:53:48;24.80;44.50
32173;DHT22;18679;45.190;5.722;2023-10-09T18:56:49;24.80;44.50
32173;DHT22;18679;45.190;5.722;2023-10-09T18:59:53;24.80;44.50
32173;DHT22;18679;45.190;5.722;2023-10-09T19:02:54;24.70;44.50
32173;DHT22;18679;45.190;5.722;2023-10-09T19:05:55;24.70;44.40
32173;DHT22;18679;45.190;5.722;2023-10-09T19:08:56;24.70;44.20
32173;DHT22;18679;45.190;5.722;2023-10-09T19:11:59;24.70;44.20
32173;DHT22;18679;45.190;5.722;2023-10-09T19:15:00;24.60;44.10
32173;DHT22;18679;45.190;5.722;2023-10-09T19:18:00;24.50;44.00
32173;DHT22;18679;45.190;5.722;2023-10-09T19:21:09;24.50;44.10
32173;DHT22;18679;45.190;5.722;2023-10-09T19:24:14;24.50;44.10
32173;DHT22;18679;45.190;5.722;2023-10-09T19:27:15;24.50;44.10
32173;DHT22;18679;45.190;5.722;2023-10-09T19:30:16;24.50;44.20
32173;DHT22;18679;45.190;5.722;2023-10-09T19:33:18;24.40;44.20
32173;DHT22;18679;45.190;5.722;2023-10-09T19:36:19;24.30;44.30
32173;DHT22;18679;45.190;5.722;2023-10-09T19:39:24;24.30;44.40
32173;DHT22;18679;45.190;5.722;2023-10-09T19:42:25;24.20;44.50
32173;DHT22;18679;45.190;5.722;2023-10-09T19:45:26;24.20;44.70